Terminal Aerodrome Forecast
Issued by NWS Charleston, WV

Current Version | Previous Version | Graphics & Text | Print | Product List | Glossary Off
Versions: 1 2 3 4 5 6 7 8 9 10 11 12 13 14 15 16 17 18 19 20 21 22

000
FTUS41 KRLX 011400 AAA
TAFBKW
TAF AMD
KBKW 011458Z 0115/0212 14007KT P6SM BKN025
      TEMPO 0115/0119 BKN015
     FM011900 14009KT P6SM BKN025
      TEMPO 0120/0124 BKN035
     FM020000 12005KT P6SM BKN040=

USA.gov is the U.S. government's official web portal to all federal, state and local government web resources and services.